createdAt,value
2018-04-10T00:00:19.819Z,16.00
2018-04-10T00:02:47.287Z,16.00
2018-04-10T00:05:14.771Z,16.00
2018-04-10T00:07:42.999Z,15.90
2018-04-10T00:10:10.515Z,15.90
2018-04-10T00:12:37.994Z,15.90
2018-04-10T00:15:05.461Z,16.00
2018-04-10T00:17:32.958Z,16.00
2018-04-10T00:20:00.438Z,16.00
2018-04-10T00:22:27.908Z,16.00
2018-04-10T00:24:55.360Z,15.90
2018-04-10T00:27:23.008Z,15.90
2018-04-10T00:29:50.645Z,15.90
2018-04-10T00:32:18.114Z,15.90
2018-04-10T00:34:45.596Z,15.90
2018-04-10T00:37:13.077Z,15.90
2018-04-10T00:39:40.570Z,15.80
2018-04-10T00:42:08.022Z,15.80
2018-04-10T00:44:35.483Z,15.80
2018-04-10T00:47:02.963Z,15.80
2018-04-10T00:49:30.419Z,15.80
2018-04-10T00:51:57.891Z,15.70
2018-04-10T00:54:26.131Z,15.70
2018-04-10T00:56:53.605Z,15.70
2018-04-10T00:59:21.077Z,15.70
2018-04-10T01:01:48.562Z,15.70
2018-04-10T01:04:16.054Z,15.70
2018-04-10T01:06:43.502Z,15.70
2018-04-10T01:09:10.988Z,15.70
2018-04-10T01:11:38.462Z,15.60
2018-04-10T01:14:05.943Z,15.60
2018-04-10T01:16:33.410Z,15.60
2018-04-10T01:19:00.893Z,15.60
2018-04-10T01:21:28.410Z,15.60
2018-04-10T01:23:56.626Z,15.60
2018-04-10T01:26:24.105Z,15.50
2018-04-10T01:28:51.567Z,15.50
2018-04-10T01:31:19.071Z,15.50
2018-04-10T01:33:47.298Z,15.50
2018-04-10T01:36:14.796Z,15.50
2018-04-10T01:38:43.034Z,15.40
2018-04-10T01:41:10.500Z,15.40
2018-04-10T01:43:37.974Z,15.40
2018-04-10T01:46:05.455Z,15.40
2018-04-10T01:48:33.697Z,15.40
2018-04-10T01:51:01.161Z,15.40
2018-04-10T01:53:29.178Z,15.40
2018-04-10T01:55:56.643Z,15.40
2018-04-10T01:58:24.110Z,15.40
2018-04-10T02:00:51.622Z,15.40
2018-04-10T02:03:19.070Z,15.40
2018-04-10T02:05:46.550Z,15.40
2018-04-10T02:08:14.831Z,15.40
2018-04-10T02:10:42.250Z,15.40
2018-04-10T02:13:09.706Z,15.40
2018-04-10T02:15:37.992Z,15.40
2018-04-10T02:18:05.455Z,15.40
2018-04-10T02:20:32.938Z,15.40
2018-04-10T02:23:01.175Z,15.40
2018-04-10T02:25:28.626Z,15.40
2018-04-10T02:27:56.101Z,15.40
2018-04-10T02:30:23.627Z,15.30
2018-04-10T02:32:51.104Z,15.30
2018-04-10T02:35:18.676Z,15.30
2018-04-10T02:37:46.133Z,15.30
2018-04-10T02:40:13.594Z,15.30
2018-04-10T02:42:41.087Z,15.30
2018-04-10T02:45:09.347Z,15.30
2018-04-10T02:47:36.798Z,15.30
2018-04-10T02:50:04.279Z,15.30
2018-04-10T02:52:32.540Z,15.20
2018-04-10T02:54:59.993Z,15.20
2018-04-10T02:57:27.477Z,15.20
2018-04-10T02:59:55.739Z,15.10
2018-04-10T03:02:23.987Z,15.10
2018-04-10T03:04:51.438Z,15.10
2018-04-10T03:07:18.918Z,15.10
2018-04-10T03:09:46.382Z,15.10
2018-04-10T03:12:13.831Z,15.10
2018-04-10T03:14:41.322Z,15.00
2018-04-10T03:17:09.551Z,15.00
2018-04-10T03:19:37.011Z,15.00
2018-04-10T03:22:04.488Z,15.00
2018-04-10T03:24:31.962Z,15.00
2018-04-10T03:27:00.205Z,14.90
2018-04-10T03:29:27.694Z,14.90
2018-04-10T03:31:55.923Z,14.80
2018-04-10T03:34:24.153Z,14.80
2018-04-10T03:36:52.395Z,14.80
2018-04-10T03:39:19.870Z,14.80
2018-04-10T03:41:47.339Z,14.80
2018-04-10T03:44:14.915Z,14.70
2018-04-10T03:46:43.142Z,14.70
2018-04-10T03:49:10.599Z,14.70
2018-04-10T03:51:38.112Z,14.70
2018-04-10T03:54:06.335Z,14.60
2018-04-10T03:56:33.819Z,14.60
2018-04-10T03:59:01.271Z,14.60
2018-04-10T04:01:28.754Z,14.60
2018-04-10T04:03:56.973Z,14.60
2018-04-10T04:06:24.461Z,14.60
2018-04-10T04:08:51.915Z,14.60
2018-04-10T04:11:19.365Z,14.60
2018-04-10T04:13:46.840Z,14.50
2018-04-10T04:16:25.975Z,14.50
2018-04-10T04:19:05.319Z,14.50
2018-04-10T04:21:45.902Z,14.50
2018-04-10T04:24:13.381Z,14.50
2018-04-10T04:26:40.862Z,14.50
2018-04-10T04:29:08.315Z,14.50
2018-04-10T04:31:35.790Z,14.50
2018-04-10T04:34:03.280Z,14.50
2018-04-10T04:36:30.751Z,14.50
2018-04-10T04:38:58.242Z,14.50
2018-04-10T04:41:25.719Z,14.50
2018-04-10T04:43:53.199Z,14.50
2018-04-10T04:46:20.668Z,14.50
2018-04-10T04:48:48.915Z,14.40
2018-04-10T04:51:17.435Z,14.40
2018-04-10T04:53:45.678Z,14.40
2018-04-10T04:56:13.154Z,14.40
2018-04-10T04:58:40.619Z,14.40
2018-04-10T05:01:08.843Z,14.30
2018-04-10T05:03:36.339Z,14.30
2018-04-10T05:06:03.819Z,14.30
2018-04-10T05:08:32.042Z,14.30
2018-04-10T05:10:59.509Z,14.30
2018-04-10T05:13:26.963Z,14.30
2018-04-10T05:15:54.458Z,14.30
2018-04-10T05:18:21.915Z,14.40
2018-04-10T05:20:49.380Z,14.40
2018-04-10T05:23:17.623Z,14.40
2018-04-10T05:25:45.105Z,14.40
2018-04-10T05:28:12.576Z,14.40
2018-04-10T05:30:40.814Z,14.50
2018-04-10T05:33:08.298Z,14.40
2018-04-10T05:35:35.742Z,14.50
2018-04-10T05:38:03.207Z,14.50
2018-04-10T05:40:30.683Z,14.50
2018-04-10T05:42:58.919Z,14.60
2018-04-10T05:45:27.312Z,14.60
2018-04-10T05:47:55.435Z,14.60
2018-04-10T05:50:23.011Z,14.60
2018-04-10T05:52:50.461Z,14.60
2018-04-10T05:55:17.909Z,14.60
2018-04-10T05:57:45.403Z,14.70
2018-04-10T06:00:12.868Z,14.70
2018-04-10T06:02:40.342Z,14.70
2018-04-10T06:05:07.867Z,14.70
2018-04-10T06:07:35.347Z,14.70
2018-04-10T06:10:02.804Z,14.80
2018-04-10T06:12:30.275Z,14.80
2018-04-10T06:14:58.011Z,14.80
2018-04-10T06:17:25.470Z,14.90
2018-04-10T06:19:52.985Z,14.90
2018-04-10T06:22:20.435Z,14.90
2018-04-10T06:24:47.893Z,15.00
2018-04-10T06:27:16.122Z,15.10
2018-04-10T06:29:43.605Z,15.10
2018-04-10T06:32:11.078Z,15.10
2018-04-10T06:34:38.732Z,15.20
2018-04-10T06:37:06.262Z,15.30
2018-04-10T06:39:33.742Z,15.30
2018-04-10T06:42:01.199Z,15.40
2018-04-10T06:44:28.719Z,15.50
2018-04-10T06:46:56.204Z,15.50
2018-04-10T06:49:23.687Z,15.50
2018-04-10T06:51:51.144Z,15.60
2018-04-10T06:54:18.627Z,15.70
2018-04-10T06:56:46.151Z,15.70
2018-04-10T06:59:13.631Z,15.80
2018-04-10T07:01:41.104Z,15.90
2018-04-10T07:04:08.553Z,16.00
2018-04-10T07:06:36.846Z,16.10
2018-04-10T07:09:07.131Z,16.10
2018-04-10T07:11:34.618Z,16.20
2018-04-10T07:14:02.858Z,16.30
2018-04-10T07:16:30.317Z,16.30
2018-04-10T07:18:57.788Z,16.30
2018-04-10T07:21:25.258Z,16.40
2018-04-10T07:23:52.735Z,16.50
2018-04-10T07:26:20.979Z,16.60
2018-04-10T07:28:48.437Z,16.60
2018-04-10T07:31:15.921Z,16.70
2018-04-10T07:33:44.138Z,16.80
2018-04-10T07:36:11.610Z,16.80
2018-04-10T07:38:39.159Z,16.80
2018-04-10T07:41:06.643Z,16.80
2018-04-10T07:43:34.110Z,16.80
2018-04-10T07:46:01.594Z,16.80
2018-04-10T07:48:29.051Z,16.80
2018-04-10T07:50:56.567Z,16.90
2018-04-10T07:53:24.043Z,16.90
2018-04-10T07:55:51.490Z,16.90
2018-04-10T07:58:18.971Z,17.00
2018-04-10T08:00:46.491Z,17.00
2018-04-10T08:03:14.695Z,17.10
2018-04-10T08:05:42.175Z,17.10
2018-04-10T08:08:10.447Z,17.20
2018-04-10T08:10:38.766Z,17.30
2018-04-10T08:13:06.247Z,17.20
2018-04-10T08:15:33.735Z,17.40
2018-04-10T08:18:01.199Z,17.50
2018-04-10T08:20:28.643Z,17.60
2018-04-10T08:22:56.094Z,17.80
2018-04-10T08:25:23.579Z,18.00
2018-04-10T08:27:51.035Z,18.10
2018-04-10T08:30:19.246Z,18.50
2018-04-10T08:32:46.735Z,18.50
2018-04-10T08:35:14.187Z,18.70
2018-04-10T08:37:41.633Z,18.90
2018-04-10T08:40:09.135Z,19.00
2018-04-10T08:42:36.582Z,19.10
2018-04-10T08:45:04.044Z,19.10
2018-04-10T08:47:31.510Z,19.30
2018-04-10T08:49:59.759Z,19.50
2018-04-10T08:52:27.206Z,19.50
2018-04-10T08:54:54.697Z,19.60
2018-04-10T08:57:22.176Z,19.70
2018-04-10T08:59:49.642Z,19.80
2018-04-10T09:02:17.131Z,19.90
2018-04-10T09:04:44.780Z,20.00
2018-04-10T09:07:12.262Z,20.00
2018-04-10T09:09:40.783Z,20.00
2018-04-10T09:12:08.259Z,20.00
2018-04-10T09:14:36.514Z,20.10
2018-04-10T09:17:03.987Z,20.10
2018-04-10T09:19:32.274Z,20.40
2018-04-10T09:21:59.787Z,20.40
2018-04-10T09:24:27.264Z,20.50
2018-04-10T09:26:54.715Z,20.50
2018-04-10T09:29:22.199Z,20.60
2018-04-10T09:31:50.447Z,20.90
2018-04-10T09:34:17.938Z,20.90
2018-04-10T09:36:45.390Z,21.10
2018-04-10T09:39:12.882Z,21.20
2018-04-10T09:41:40.352Z,21.20
2018-04-10T09:44:07.811Z,21.20
2018-04-10T09:46:35.284Z,21.30
2018-04-10T09:49:02.762Z,21.30
2018-04-10T09:51:30.283Z,21.40
2018-04-10T09:53:57.768Z,21.40
2018-04-10T09:56:25.315Z,21.50
2018-04-10T09:58:52.780Z,21.50
2018-04-10T10:01:20.336Z,21.60
2018-04-10T10:03:47.820Z,21.60
2018-04-10T10:06:15.289Z,21.60
2018-04-10T10:08:42.756Z,21.60
2018-04-10T10:11:10.223Z,21.60
2018-04-10T10:13:37.711Z,21.60
2018-04-10T10:16:05.262Z,21.70
2018-04-10T10:18:32.714Z,21.90
2018-04-10T10:21:00.203Z,22.00
2018-04-10T10:23:28.011Z,22.10
2018-04-10T10:25:56.226Z,22.40
2018-04-10T10:28:23.703Z,22.40
2018-04-10T10:30:51.208Z,22.30
2018-04-10T10:33:19.442Z,22.20
2018-04-10T10:35:46.899Z,22.20
2018-04-10T10:38:14.367Z,22.20
2018-04-10T10:40:41.830Z,22.20
2018-04-10T10:43:09.315Z,22.30
2018-04-10T10:45:37.602Z,22.30
2018-04-10T10:48:05.851Z,22.40
2018-04-10T10:50:33.319Z,22.40
2018-04-10T10:53:00.787Z,22.40
2018-04-10T10:55:29.041Z,22.50
2018-04-10T10:57:56.494Z,22.50
2018-04-10T11:00:23.996Z,22.50
2018-04-10T11:02:51.495Z,22.60
2018-04-10T11:05:18.959Z,22.80
2018-04-10T11:07:46.570Z,22.90
2018-04-10T11:10:14.054Z,22.90
2018-04-10T11:12:41.547Z,22.90
2018-04-10T11:15:09.007Z,22.90
2018-04-10T11:17:36.491Z,23.00
2018-04-10T11:20:03.948Z,23.00
2018-04-10T11:22:31.431Z,23.00
2018-04-10T11:24:58.904Z,23.10
2018-04-10T11:27:26.382Z,23.30
2018-04-10T11:29:54.706Z,23.50
2018-04-10T11:32:22.943Z,23.50
2018-04-10T11:34:50.417Z,23.50
2018-04-10T11:37:17.886Z,23.50
2018-04-10T11:39:45.363Z,23.60
2018-04-10T11:42:13.602Z,23.60
2018-04-10T11:44:41.081Z,23.60
2018-04-10T11:47:08.534Z,23.60
2018-04-10T11:49:36.006Z,23.40
2018-04-10T11:52:04.292Z,23.40
2018-04-10T11:54:32.522Z,23.50
2018-04-10T11:57:00.738Z,23.60
2018-04-10T11:59:29.180Z,23.70
2018-04-10T12:01:56.654Z,23.70
2018-04-10T12:04:24.110Z,23.90
2018-04-10T12:06:51.586Z,24.00
2018-04-10T12:09:19.050Z,24.10
2018-04-10T12:11:46.518Z,24.10
2018-04-10T12:14:13.993Z,24.20
2018-04-10T12:16:41.482Z,24.40
2018-04-10T12:19:08.948Z,24.50
2018-04-10T12:21:36.478Z,24.50
2018-04-10T12:24:04.018Z,24.60
2018-04-10T12:26:31.485Z,24.80
2018-04-10T12:28:58.963Z,24.90
2018-04-10T12:31:26.635Z,25.00
2018-04-10T12:33:54.083Z,25.10
2018-04-10T12:36:21.567Z,25.10
2018-04-10T12:38:49.015Z,25.20
2018-04-10T12:41:16.464Z,25.20
2018-04-10T12:43:43.944Z,25.20
2018-04-10T12:46:11.419Z,25.30
2018-04-10T12:48:38.882Z,25.30
2018-04-10T12:51:07.179Z,25.40
2018-04-10T12:53:35.404Z,25.50
2018-04-10T12:56:02.877Z,25.50
2018-04-10T12:58:30.499Z,25.70
2018-04-10T13:00:57.943Z,25.80
2018-04-10T13:03:25.436Z,25.90
2018-04-10T13:05:52.895Z,26.00
2018-04-10T13:08:20.351Z,26.20
2018-04-10T13:10:47.827Z,26.20
2018-04-10T13:13:15.284Z,26.20
2018-04-10T13:15:42.800Z,26.20
2018-04-10T13:18:10.262Z,26.30
2018-04-10T13:20:37.734Z,26.30
2018-04-10T13:23:05.190Z,26.30
2018-04-10T13:25:32.659Z,26.30
2018-04-10T13:28:00.115Z,26.20
2018-04-10T13:30:27.593Z,26.20
2018-04-10T13:32:55.109Z,26.30
2018-04-10T13:35:22.587Z,26.30
2018-04-10T13:37:50.043Z,26.20
2018-04-10T13:40:17.494Z,26.40
2018-04-10T13:42:44.976Z,26.80
2018-04-10T13:45:12.430Z,27.20
2018-04-10T13:47:39.879Z,27.70
2018-04-10T13:50:07.408Z,27.90
2018-04-10T13:52:34.879Z,27.90
2018-04-10T13:55:02.317Z,28.00
2018-04-10T13:57:29.819Z,28.10
2018-04-10T13:59:57.310Z,28.30
2018-04-10T14:02:24.757Z,28.70
2018-04-10T14:04:52.247Z,29.40
2018-04-10T14:07:19.697Z,29.70
2018-04-10T14:09:47.167Z,29.60
2018-04-10T14:12:14.610Z,29.50
2018-04-10T14:14:42.082Z,29.20
2018-04-10T14:17:09.583Z,28.90
2018-04-10T14:19:37.034Z,28.80
2018-04-10T14:22:04.631Z,29.10
2018-04-10T14:24:32.083Z,29.70
2018-04-10T14:26:59.547Z,30.10
2018-04-10T14:29:27.019Z,30.10
2018-04-10T14:31:54.493Z,29.90
2018-04-10T14:34:21.975Z,30.10
2018-04-10T14:36:49.468Z,30.50
2018-04-10T14:39:16.937Z,30.60
2018-04-10T14:41:44.425Z,30.50
2018-04-10T14:44:12.723Z,30.10
2018-04-10T14:46:40.181Z,30.10
2018-04-10T14:49:07.658Z,29.80
2018-04-10T14:51:35.346Z,29.50
2018-04-10T14:54:02.815Z,29.40
2018-04-10T14:56:30.273Z,29.30
2018-04-10T14:58:57.827Z,29.30
2018-04-10T15:01:25.309Z,29.10
2018-04-10T15:03:53.526Z,28.70
2018-04-10T15:06:21.004Z,28.70
2018-04-10T15:08:48.486Z,28.60
2018-04-10T15:11:15.950Z,28.50
2018-04-10T15:13:44.185Z,28.30
2018-04-10T15:16:11.660Z,28.20
2018-04-10T15:18:39.135Z,28.30
2018-04-10T15:21:06.626Z,28.20
2018-04-10T15:23:34.102Z,28.20
2018-04-10T15:26:01.603Z,28.20
2018-04-10T15:28:29.059Z,28.90
2018-04-10T15:30:56.541Z,29.30
2018-04-10T15:33:24.792Z,29.40
2018-04-10T15:35:52.263Z,29.30
2018-04-10T15:38:19.750Z,29.20
2018-04-10T15:40:47.314Z,29.00
2018-04-10T15:43:14.787Z,28.70
2018-04-10T15:45:42.271Z,28.40
2018-04-10T15:48:09.731Z,28.10
2018-04-10T15:50:37.211Z,27.90
2018-04-10T15:53:04.685Z,28.00
2018-04-10T15:55:32.133Z,27.90
2018-04-10T15:57:59.603Z,27.80
2018-04-10T16:00:27.709Z,27.50
2018-04-10T16:02:55.190Z,27.30
2018-04-10T16:05:23.405Z,27.60
2018-04-10T16:07:51.651Z,27.70
2018-04-10T16:10:19.251Z,27.70
2018-04-10T16:12:47.489Z,27.30
2018-04-10T16:15:14.959Z,27.30
2018-04-10T16:17:42.433Z,27.10
2018-04-10T16:20:10.122Z,26.90
2018-04-10T16:22:37.640Z,26.80
2018-04-10T16:25:05.118Z,27.20
2018-04-10T16:27:32.583Z,27.60
2018-04-10T16:30:00.052Z,28.00
2018-04-10T16:32:27.509Z,28.60
2018-04-10T16:34:54.992Z,29.20
2018-04-10T16:37:22.648Z,29.20
2018-04-10T16:39:50.195Z,29.10
2018-04-10T16:42:17.759Z,29.20
2018-04-10T16:44:45.338Z,29.50
2018-04-10T16:47:12.826Z,29.70
2018-04-10T16:49:40.318Z,29.80
2018-04-10T16:52:07.762Z,29.70
2018-04-10T16:54:35.253Z,29.10
2018-04-10T16:57:02.736Z,28.50
2018-04-10T16:59:30.202Z,27.90
2018-04-10T17:01:57.751Z,27.30
2018-04-10T17:04:25.227Z,26.80
2018-04-10T17:06:52.783Z,26.40
2018-04-10T17:09:20.399Z,26.00
2018-04-10T17:11:48.026Z,25.70
2018-04-10T17:14:15.576Z,25.40
2018-04-10T17:16:43.110Z,25.10
2018-04-10T17:19:10.901Z,24.90
2018-04-10T17:21:38.966Z,24.60
2018-04-10T17:24:06.704Z,24.50
2018-04-10T17:26:34.283Z,24.30
2018-04-10T17:29:02.106Z,24.00
2018-04-10T17:31:29.688Z,23.90
2018-04-10T17:33:57.159Z,23.70
2018-04-10T17:36:24.788Z,23.60
2018-04-10T17:38:53.836Z,23.30
2018-04-10T17:41:22.102Z,23.20
2018-04-10T17:43:49.567Z,23.20
2018-04-10T17:46:17.080Z,23.10
2018-04-10T17:48:44.547Z,23.00
2018-04-10T17:51:12.030Z,23.00
2018-04-10T17:53:39.491Z,22.90
2018-04-10T17:56:06.995Z,22.90
2018-04-10T17:58:34.478Z,22.80
2018-04-10T18:01:02.028Z,22.80
2018-04-10T18:03:30.268Z,22.60
2018-04-10T18:05:57.752Z,22.60
2018-04-10T18:08:25.982Z,22.50
2018-04-10T18:10:53.454Z,22.50
2018-04-10T18:13:20.911Z,22.50
2018-04-10T18:15:48.391Z,22.40
2018-04-10T18:18:15.862Z,22.40
2018-04-10T18:20:44.198Z,22.30
2018-04-10T18:23:11.667Z,22.30
2018-04-10T18:25:39.358Z,22.20
2018-04-10T18:28:06.875Z,22.20
2018-04-10T18:30:34.395Z,22.20
2018-04-10T18:33:02.850Z,22.10
2018-04-10T18:35:30.463Z,22.10
2018-04-10T18:37:57.917Z,22.00
2018-04-10T18:40:25.378Z,21.90
2018-04-10T18:42:52.851Z,21.80
2018-04-10T18:45:20.507Z,21.70
2018-04-10T18:47:47.995Z,21.70
2018-04-10T18:50:15.446Z,21.60
2018-04-10T18:52:43.113Z,21.60
2018-04-10T18:55:11.352Z,21.40
2018-04-10T18:57:38.822Z,21.40
2018-04-10T19:00:06.464Z,21.40
2018-04-10T19:02:34.170Z,21.30
2018-04-10T19:05:01.699Z,21.20
2018-04-10T19:07:29.210Z,21.20
2018-04-10T19:09:56.718Z,21.10
2018-04-10T19:12:24.256Z,21.10
2018-04-10T19:14:51.872Z,21.10
2018-04-10T19:17:20.256Z,21.00
2018-04-10T19:19:47.756Z,21.00
2018-04-10T19:22:15.282Z,21.00
2018-04-10T19:24:43.003Z,21.00
2018-04-10T19:27:10.471Z,20.90
2018-04-10T19:29:38.134Z,20.90
2018-04-10T19:32:05.891Z,20.80
2018-04-10T19:34:33.378Z,20.80
2018-04-10T19:37:00.862Z,20.70
2018-04-10T19:39:28.311Z,20.70
2018-04-10T19:41:55.797Z,20.70
2018-04-10T19:44:24.165Z,20.70
2018-04-10T19:46:51.638Z,20.60
2018-04-10T19:49:19.205Z,20.70
2018-04-10T19:51:46.796Z,20.70
2018-04-10T19:54:15.163Z,20.60
2018-04-10T19:56:42.858Z,20.60
2018-04-10T19:59:10.598Z,20.60
2018-04-10T20:01:38.202Z,20.50
2018-04-10T20:04:05.834Z,20.40
2018-04-10T20:06:33.781Z,20.40
2018-04-10T20:09:02.145Z,20.30
2018-04-10T20:11:30.452Z,20.30
2018-04-10T20:13:58.182Z,20.20
2018-04-10T20:16:26.897Z,20.20
2018-04-10T20:18:54.394Z,20.10
2018-04-10T20:21:21.913Z,20.10
2018-04-10T20:23:49.439Z,20.00
2018-04-10T20:26:17.666Z,20.00
2018-04-10T20:28:45.151Z,19.90
2018-04-10T20:31:12.609Z,19.90
2018-04-10T20:33:40.095Z,19.80
2018-04-10T20:36:07.555Z,19.80
2018-04-10T20:38:35.035Z,19.80
2018-04-10T20:41:02.503Z,19.80
2018-04-10T20:43:29.978Z,19.80
2018-04-10T20:45:57.465Z,19.80
2018-04-10T20:48:24.935Z,19.70
2018-04-10T20:50:53.204Z,19.60
2018-04-10T20:53:20.682Z,19.60
2018-04-10T20:55:48.895Z,19.60
2018-04-10T20:58:16.378Z,19.50
2018-04-10T21:00:43.831Z,19.50
2018-04-10T21:03:11.307Z,19.50
2018-04-10T21:05:38.804Z,19.50
2018-04-10T21:08:06.280Z,19.40
2018-04-10T21:10:33.737Z,19.30
2018-04-10T21:13:01.236Z,19.20
2018-04-10T21:15:28.695Z,19.10
2018-04-10T21:17:56.157Z,19.00
2018-04-10T21:20:23.632Z,19.00
2018-04-10T21:22:51.850Z,18.80
2018-04-10T21:25:19.335Z,18.80
2018-04-10T21:27:46.790Z,18.70
2018-04-10T21:30:14.264Z,18.70
2018-04-10T21:32:41.718Z,18.50
2018-04-10T21:35:09.200Z,18.40
2018-04-10T21:37:36.702Z,18.30
2018-04-10T21:40:04.154Z,18.30
2018-04-10T21:42:37.257Z,18.30
2018-04-10T21:45:04.737Z,18.10
2018-04-10T21:47:32.182Z,18.00
2018-04-10T21:49:59.931Z,17.90
2018-04-10T21:52:27.369Z,17.80
2018-04-10T21:54:54.850Z,17.70
2018-04-10T21:57:22.308Z,17.60
2018-04-10T21:59:49.797Z,17.40
2018-04-10T22:02:17.248Z,17.20
2018-04-10T22:04:44.722Z,17.00
2018-04-10T22:07:12.170Z,16.90
2018-04-10T22:09:39.643Z,16.80
2018-04-10T22:12:07.099Z,16.70
2018-04-10T22:14:34.569Z,16.60
2018-04-10T22:17:02.809Z,16.40
2018-04-10T22:19:30.253Z,16.40
2018-04-10T22:21:57.706Z,16.20
2018-04-10T22:24:25.178Z,16.10
2018-04-10T22:26:52.642Z,16.00
2018-04-10T22:29:20.104Z,15.90
2018-04-10T22:31:47.588Z,15.80
2018-04-10T22:34:15.006Z,15.70
2018-04-10T22:36:42.455Z,15.70
2018-04-10T22:39:09.923Z,15.70
2018-04-10T22:41:37.403Z,15.70
2018-04-10T22:44:05.788Z,15.80
2018-04-10T22:46:34.027Z,15.90
2018-04-10T22:49:01.517Z,15.80
2018-04-10T22:51:28.971Z,15.90
2018-04-10T22:53:56.410Z,15.90
2018-04-10T22:56:23.887Z,15.90
2018-04-10T22:58:51.355Z,15.90
2018-04-10T23:01:18.802Z,16.00
2018-04-10T23:03:47.055Z,16.00
2018-04-10T23:06:14.507Z,16.00
2018-04-10T23:08:41.991Z,16.10
2018-04-10T23:11:09.447Z,16.10
2018-04-10T23:13:36.919Z,16.20
2018-04-10T23:16:04.526Z,16.20
2018-04-10T23:18:31.977Z,16.20
2018-04-10T23:20:59.459Z,16.30
2018-04-10T23:23:26.911Z,16.30
2018-04-10T23:25:54.392Z,16.30
2018-04-10T23:28:21.876Z,16.30
2018-04-10T23:30:49.331Z,16.40
2018-04-10T23:33:16.790Z,16.30
2018-04-10T23:35:44.268Z,16.30
2018-04-10T23:38:11.760Z,16.30
2018-04-10T23:40:39.299Z,16.20
2018-04-10T23:43:07.545Z,16.20
2018-04-10T23:45:34.995Z,16.20
2018-04-10T23:48:02.478Z,16.20
2018-04-10T23:50:29.926Z,16.10
2018-04-10T23:52:57.413Z,16.10
2018-04-10T23:55:25.691Z,15.90
2018-04-10T23:57:53.118Z,15.90
